Time;durP1;ratioP1;P1;durP2;ratioP2;P2;SDS_P1;SDS_P2;PMS_P1;PMS_P2;Temp;Humidity;BMP_temperature;BMP_pressure;BME280_temperature;BME280_humidity;BME280_pressure;Samples;Min_cycle;Max_cycle;Signal;HPM_P1;HPM_P2
2022/08/29 00:00:17;;;;;;;2.58;1.42;;;20.80;99.90;;;;;;1042169;28;20541;-72
2022/08/29 00:00:47;;;;;;;3.33;1.50;;;20.70;99.90;;;;;;1044321;28;20040;-73
2022/08/29 00:01:19;;;;;;;3.43;1.40;;;20.70;99.90;;;;;;1046397;28;20729;-72
2022/08/29 00:01:50;;;;;;;2.47;1.48;;;20.70;99.90;;;;;;1046834;28;20526;-73
2022/08/29 00:02:20;;;;;;;1.97;1.30;;;20.70;99.90;;;;;;1046976;28;20483;-72
2022/08/29 00:02:54;;;;;;;2.00;1.50;;;20.70;99.90;;;;;;1046344;28;20020;-72
2022/08/29 00:03:25;;;;;;;2.35;1.48;;;20.70;99.90;;;;;;1046327;28;20024;-72
2022/08/29 00:03:56;;;;;;;2.07;1.20;;;20.70;99.90;;;;;;1042615;28;20021;-72
2022/08/29 00:04:27;;;;;;;1.80;1.30;;;20.70;99.90;;;;;;1042804;28;20044;-72
2022/08/29 00:04:58;;;;;;;2.77;1.40;;;20.70;99.90;;;;;;1041913;28;20013;-72
2022/08/29 00:05:31;;;;;;;4.03;1.50;;;20.70;99.90;;;;;;1042545;28;20013;-72
2022/08/29 00:06:02;;;;;;;2.08;1.30;;;20.70;99.90;;;;;;1046767;28;20018;-72
2022/08/29 00:06:32;;;;;;;2.70;1.53;;;20.70;99.90;;;;;;1046743;28;20028;-72
2022/08/29 00:07:03;;;;;;;2.50;1.20;;;20.70;99.90;;;;;;1047950;28;20055;-72
2022/08/29 00:07:34;;;;;;;1.20;1.00;;;20.70;99.90;;;;;;1047644;28;20032;-72
2022/08/29 00:08:05;;;;;;;2.03;1.40;;;20.70;99.90;;;;;;1047794;28;20459;-72
2022/08/29 00:08:36;;;;;;;2.55;1.48;;;20.70;99.90;;;;;;1043478;28;20086;-73
2022/08/29 00:09:06;;;;;;;2.83;1.43;;;20.70;99.90;;;;;;1043410;28;20021;-73
2022/08/29 00:09:37;;;;;;;2.20;1.70;;;20.70;99.90;;;;;;1048322;28;20036;-73
2022/08/29 00:10:08;;;;;;;2.43;1.27;;;20.70;99.90;;;;;;1051915;28;20486;-73
2022/08/29 00:10:40;;;;;;;2.40;1.20;;;20.70;99.90;;;;;;1051502;28;20035;-72
2022/08/29 00:11:11;;;;;;;2.85;1.58;;;20.70;99.90;;;;;;1051039;28;20020;-73
2022/08/29 00:11:41;;;;;;;2.60;1.73;;;20.70;99.90;;;;;;1047542;28;20044;-73
2022/08/29 00:12:12;;;;;;;1.87;1.37;;;20.70;99.90;;;;;;1047749;28;20017;-73
2022/08/29 00:12:42;;;;;;;2.07;1.53;;;20.70;99.90;;;;;;1043274;28;20419;-72
2022/08/29 00:13:14;;;;;;;4.20;1.50;;;20.70;99.90;;;;;;1043298;28;20012;-73
2022/08/29 00:13:45;;;;;;;3.00;1.35;;;20.60;99.90;;;;;;1043249;28;20040;-73
2022/08/29 00:14:16;;;;;;;1.63;1.20;;;20.70;99.90;;;;;;1039597;28;20056;-73
2022/08/29 00:14:46;;;;;;;3.60;1.73;;;20.60;99.90;;;;;;1043444;28;20105;-73
2022/08/29 00:15:18;;;;;;;2.40;1.30;;;20.70;99.90;;;;;;1047499;28;20049;-73
2022/08/29 00:15:49;;;;;;;2.40;1.30;;;20.60;99.90;;;;;;1047389;28;20044;-73
2022/08/29 00:16:19;;;;;;;1.93;1.20;;;20.60;99.90;;;;;;1047165;28;20020;-74
2022/08/29 00:16:50;;;;;;;1.83;1.30;;;20.60;99.90;;;;;;1047577;28;20048;-73
2022/08/29 00:17:20;;;;;;;4.13;1.73;;;20.60;99.90;;;;;;1047571;28;20340;-71
2022/08/29 00:17:51;;;;;;;3.03;1.57;;;20.60;99.90;;;;;;1047451;28;20067;-71
2022/08/29 00:18:22;;;;;;;3.10;1.53;;;20.60;99.90;;;;;;1047457;28;20016;-71
2022/08/29 00:18:52;;;;;;;2.03;1.30;;;20.60;99.90;;;;;;1043325;28;20158;-74
2022/08/29 00:19:23;;;;;;;1.43;1.10;;;20.60;99.90;;;;;;1043389;28;20706;-72
2022/08/29 00:19:53;;;;;;;2.07;1.50;;;20.60;99.90;;;;;;1043307;28;20024;-73
2022/08/29 00:20:26;;;;;;;2.13;1.40;;;20.60;99.90;;;;;;1047379;28;20094;-71
2022/08/29 00:20:57;;;;;;;4.07;1.85;;;20.60;99.90;;;;;;1047613;28;20013;-72
2022/08/29 00:21:28;;;;;;;3.50;1.40;;;20.60;99.90;;;;;;1043347;28;20397;-72
2022/08/29 00:21:58;;;;;;;1.50;1.33;;;20.60;99.90;;;;;;1046458;28;20659;-74
2022/08/29 00:22:29;;;;;;;2.37;1.47;;;20.60;99.90;;;;;;1043149;28;20023;-74
2022/08/29 00:23:00;;;;;;;1.63;1.10;;;20.60;99.90;;;;;;1043324;28;20025;-72
2022/08/29 00:23:31;;;;;;;4.63;1.83;;;20.60;99.90;;;;;;1043232;28;20116;-73
2022/08/29 00:24:02;;;;;;;3.30;1.43;;;20.60;99.90;;;;;;1047057;28;20073;-72
2022/08/29 00:24:33;;;;;;;2.15;1.30;;;20.60;99.90;;;;;;1047357;28;20021;-73
2022/08/29 00:25:06;;;;;;;2.30;1.40;;;20.60;99.90;;;;;;1047435;28;20031;-72
2022/08/29 00:25:37;;;;;;;2.25;1.17;;;20.60;99.90;;;;;;1047248;28;20171;-72
2022/08/29 00:26:07;;;;;;;2.67;1.52;;;20.60;99.90;;;;;;1047752;28;20348;-73
2022/08/29 00:26:38;;;;;;;3.13;1.57;;;20.60;99.90;;;;;;1047305;28;20494;-73
2022/08/29 00:27:09;;;;;;;4.37;1.87;;;20.60;99.90;;;;;;1047108;28;20490;-73
2022/08/29 00:27:39;;;;;;;2.10;1.50;;;20.60;99.90;;;;;;1047496;28;20118;-73
2022/08/29 00:28:10;;;;;;;2.43;1.80;;;20.50;99.90;;;;;;1043178;28;20805;-73
2022/08/29 00:28:40;;;;;;;5.53;1.87;;;20.60;99.90;;;;;;1043344;28;20043;-73
2022/08/29 00:29:11;;;;;;;3.50;1.77;;;20.60;99.90;;;;;;1043182;28;20135;-73
2022/08/29 00:29:42;;;;;;;3.00;1.30;;;20.60;99.90;;;;;;1043516;28;20032;-73
2022/08/29 00:30:14;;;;;;;2.80;1.20;;;20.60;99.90;;;;;;1043593;28;20017;-72
2022/08/29 00:30:44;;;;;;;2.92;1.55;;;20.50;99.90;;;;;;1047419;28;20017;-71
2022/08/29 00:31:15;;;;;;;2.80;1.70;;;20.50;99.90;;;;;;1047716;28;20126;-72
2022/08/29 00:31:45;;;;;;;2.77;1.33;;;20.50;99.90;;;;;;1047591;28;20024;-71
2022/08/29 00:32:16;;;;;;;2.13;1.43;;;20.50;99.90;;;;;;1047851;28;20024;-71
2022/08/29 00:32:47;;;;;;;4.37;2.33;;;20.50;99.90;;;;;;1048061;28;20020;-72
2022/08/29 00:33:17;;;;;;;2.07;1.17;;;20.50;99.90;;;;;;1047949;28;20035;-73
2022/08/29 00:33:50;;;;;;;1.40;1.10;;;20.50;99.90;;;;;;1047923;28;20048;-73
2022/08/29 00:34:20;;;;;;;1.65;1.38;;;20.50;99.90;;;;;;1047985;28;20102;-71
2022/08/29 00:34:51;;;;;;;3.87;1.37;;;20.50;99.90;;;;;;1047530;28;20111;-72
2022/08/29 00:35:25;;;;;;;1.80;1.20;;;20.50;99.90;;;;;;1043590;28;20017;-71
2022/08/29 00:35:56;;;;;;;3.28;1.67;;;20.50;99.90;;;;;;1042931;28;20219;-72
2022/08/29 00:36:27;;;;;;;1.67;1.23;;;20.50;99.90;;;;;;1044339;28;20029;-72
2022/08/29 00:36:57;;;;;;;2.53;1.50;;;20.50;99.90;;;;;;1046859;28;20112;-73
2022/08/29 00:37:28;;;;;;;2.40;1.40;;;20.50;99.90;;;;;;1039151;28;20381;-72
2022/08/29 00:37:59;;;;;;;2.57;1.50;;;20.50;99.90;;;;;;1047489;28;20123;-72
2022/08/29 00:38:30;;;;;;;2.17;1.30;;;20.50;99.90;;;;;;1047682;28;20027;-71
2022/08/29 00:39:01;;;;;;;1.93;1.17;;;20.50;99.90;;;;;;1047259;28;20017;-72
2022/08/29 00:39:32;;;;;;;4.65;2.13;;;20.50;99.90;;;;;;1047211;28;20028;-72
2022/08/29 00:40:11;;;;;;;1.77;1.20;;;20.50;99.90;;;;;;1039469;28;20116;-72
2022/08/29 00:40:52;;;;;;;2.13;1.15;;;20.50;99.90;;;;;;1044592;28;20021;-71
2022/08/29 00:41:23;;;;;;;2.85;1.60;;;20.50;99.90;;;;;;1047558;28;20404;-72
2022/08/29 00:41:53;;;;;;;2.30;1.90;;;20.50;99.90;;;;;;1047811;28;20628;-72
2022/08/29 00:42:24;;;;;;;1.90;1.17;;;20.50;99.90;;;;;;1047839;28;20023;-72
2022/08/29 00:42:54;;;;;;;1.80;1.40;;;20.50;99.90;;;;;;1047592;28;20514;-72
2022/08/29 00:43:28;;;;;;;3.00;1.73;;;20.50;99.90;;;;;;1047652;28;20020;-73
2022/08/29 00:43:59;;;;;;;2.83;1.60;;;20.50;99.90;;;;;;1047617;28;20418;-73
2022/08/29 00:44:30;;;;;;;2.80;1.70;;;20.40;99.90;;;;;;1047446;28;20579;-72
2022/08/29 00:45:02;;;;;;;2.57;1.60;;;20.50;99.90;;;;;;1047524;28;20066;-72
2022/08/29 00:45:35;;;;;;;2.47;1.60;;;20.40;99.90;;;;;;1045550;28;20479;-72
2022/08/29 00:46:05;;;;;;;1.55;1.30;;;20.50;99.90;;;;;;1046762;28;20017;-71
2022/08/29 00:46:45;;;;;;;2.90;1.50;;;20.50;99.90;;;;;;1043163;28;20048;-74
2022/08/29 00:47:21;;;;;;;1.55;1.17;;;20.40;99.90;;;;;;1047369;28;20035;-72
2022/08/29 00:47:58;;;;;;;1.33;1.05;;;20.40;99.90;;;;;;1045755;28;20482;-72
2022/08/29 00:48:29;;;;;;;1.70;1.40;;;20.40;99.90;;;;;;1046338;28;20690;-72
2022/08/29 00:49:03;;;;;;;4.67;1.80;;;20.40;99.90;;;;;;1045955;28;20475;-72
2022/08/29 00:49:38;;;;;;;2.50;1.88;;;20.40;99.90;;;;;;1047324;28;20012;-71
2022/08/29 00:50:20;;;;;;;2.92;1.27;;;20.40;99.90;;;;;;1044322;28;20194;-73
2022/08/29 00:50:55;;;;;;;2.00;1.20;;;20.40;99.90;;;;;;1047487;28;20054;-73
2022/08/29 00:51:25;;;;;;;1.58;1.10;;;20.40;99.90;;;;;;1043179;28;20101;-73
2022/08/29 00:51:59;;;;;;;3.23;1.40;;;20.40;99.90;;;;;;1045769;28;20021;-72
2022/08/29 00:52:38;;;;;;;1.65;1.40;;;20.40;99.90;;;;;;1042966;28;20013;-72
2022/08/29 00:53:12;;;;;;;3.40;1.65;;;20.40;99.90;;;;;;1045247;28;20029;-73
2022/08/29 00:53:46;;;;;;;1.48;1.10;;;20.40;99.90;;;;;;1043396;28;20128;-72
2022/08/29 00:54:17;;;;;;;2.70;1.40;;;20.40;99.90;;;;;;1045614;28;20029;-72
2022/08/29 00:54:51;;;;;;;1.67;1.37;;;20.40;99.90;;;;;;1047486;28;20024;-72
2022/08/29 00:55:25;;;;;;;3.50;1.60;;;20.40;99.90;;;;;;1047487;28;20052;-72
2022/08/29 00:55:56;;;;;;;2.83;1.48;;;20.40;99.90;;;;;;1047306;28;20063;-72
2022/08/29 00:56:28;;;;;;;2.30;1.30;;;20.30;99.90;;;;;;1047967;28;20012;-73
2022/08/29 00:56:59;;;;;;;1.75;1.42;;;20.40;99.90;;;;;;1045989;28;20757;-72
2022/08/29 00:57:31;;;;;;;2.20;1.42;;;20.40;99.90;;;;;;1043403;28;20017;-72
2022/08/29 00:58:07;;;;;;;3.45;1.52;;;20.30;99.90;;;;;;1046936;28;20561;-72
2022/08/29 00:58:46;;;;;;;2.58;1.13;;;20.40;99.90;;;;;;1051848;28;20020;-72
2022/08/29 00:59:23;;;;;;;;;;;20.40;99.90;;;;;;1050038;28;20454;-74
2022/08/29 00:59:53;;;;;;;2.35;1.45;;;20.30;99.90;;;;;;1050278;28;20012;-72
2022/08/29 01:00:25;;;;;;;2.67;1.20;;;20.30;99.90;;;;;;1045641;28;20107;-72
2022/08/29 01:00:57;;;;;;;2.85;1.40;;;20.30;99.90;;;;;;1044383;28;20935;-72
2022/08/29 01:01:27;;;;;;;1.45;1.20;;;20.30;99.90;;;;;;1043252;28;20009;-73
2022/08/29 01:01:58;;;;;;;3.33;1.50;;;20.30;99.90;;;;;;1039313;28;20022;-72
2022/08/29 01:02:29;;;;;;;3.70;1.50;;;20.30;99.90;;;;;;1043104;28;20025;-72
2022/08/29 01:02:59;;;;;;;1.53;1.43;;;20.30;99.90;;;;;;1042969;28;20037;-72
2022/08/29 01:03:32;;;;;;;1.90;1.27;;;20.30;99.90;;;;;;1047083;28;20024;-72
2022/08/29 01:04:04;;;;;;;2.25;1.27;;;20.30;99.90;;;;;;1047333;28;20031;-72
2022/08/29 01:04:34;;;;;;;2.72;1.42;;;20.30;99.90;;;;;;1050813;28;20361;-72
2022/08/29 01:05:07;;;;;;;2.00;1.20;;;20.30;99.90;;;;;;1046910;28;20666;-71
2022/08/29 01:05:38;;;;;;;2.33;1.50;;;20.30;99.90;;;;;;1043763;28;20096;-72
2022/08/29 01:06:12;;;;;;;2.87;1.80;;;20.30;99.90;;;;;;1047893;28;20128;-73
2022/08/29 01:06:43;;;;;;;1.52;1.25;;;20.30;99.90;;;;;;1047528;28;20436;-72
2022/08/29 01:07:14;;;;;;;2.42;1.50;;;20.30;99.90;;;;;;1047050;28;20053;-73
2022/08/29 01:07:46;;;;;;;1.90;1.60;;;20.30;99.90;;;;;;1043092;28;20017;-73
2022/08/29 01:08:17;;;;;;;2.58;1.42;;;20.30;99.90;;;;;;1046188;28;20043;-72
2022/08/29 01:08:48;;;;;;;1.77;1.37;;;20.30;99.90;;;;;;1047274;28;20635;-73
2022/08/29 01:09:19;;;;;;;3.30;1.80;;;20.30;99.90;;;;;;1047266;28;20042;-73
2022/08/29 01:09:51;;;;;;;3.28;1.75;;;20.30;99.90;;;;;;1049302;28;20032;-72
2022/08/29 01:12:15;;;;;;;3.83;1.50;;;20.20;99.90;;;;;;1047756;28;20091;-73
2022/08/29 01:12:46;;;;;;;2.42;1.20;;;20.20;99.90;;;;;;1047153;28;20238;-72
2022/08/29 01:13:17;;;;;;;2.97;1.53;;;20.20;99.90;;;;;;1050839;28;20049;-73
2022/08/29 01:13:49;;;;;;;4.87;1.53;;;20.20;99.90;;;;;;1051377;28;20028;-73
2022/08/29 01:14:22;;;;;;;2.35;1.10;;;20.20;99.90;;;;;;1051829;28;20016;-72
2022/08/29 01:14:55;;;;;;;3.13;1.55;;;20.20;99.90;;;;;;1049151;28;20020;-72
2022/08/29 01:15:29;;;;;;;2.40;1.42;;;20.20;99.90;;;;;;1051591;28;20023;-72
2022/08/29 01:16:01;;;;;;;3.40;1.55;;;20.20;99.90;;;;;;1048655;28;20025;-72
2022/08/29 01:16:32;;;;;;;4.45;1.50;;;20.20;99.90;;;;;;1049087;28;20022;-73
2022/08/29 01:17:05;;;;;;;2.23;1.40;;;20.20;99.90;;;;;;1047490;28;20024;-72
2022/08/29 01:17:41;;;;;;;2.20;1.23;;;20.20;99.90;;;;;;1047414;28;20013;-72
2022/08/29 01:18:14;;;;;;;4.00;1.83;;;20.20;99.90;;;;;;1048466;28;20059;-72
2022/08/29 01:18:47;;;;;;;2.70;1.60;;;20.20;99.90;;;;;;1047332;28;20120;-73
2022/08/29 01:19:23;;;;;;;3.67;1.98;;;20.20;99.90;;;;;;1047344;28;20023;-72
2022/08/29 01:20:09;;;;;;;1.85;1.40;;;20.20;99.90;;;;;;1047496;28;20020;-73
2022/08/29 01:20:48;;;;;;;1.73;1.25;;;20.20;99.90;;;;;;1050915;28;20022;-73
2022/08/29 01:21:28;;;;;;;2.80;1.40;;;20.20;99.90;;;;;;1052132;28;20016;-73
2022/08/29 01:22:12;;;;;;;1.67;1.35;;;20.20;99.90;;;;;;1047546;28;20084;-72
2022/08/29 01:22:59;;;;;;;2.25;1.30;;;20.20;99.90;;;;;;1047796;28;20021;-72
2022/08/29 01:24:05;;;;;;;2.60;1.92;;;20.20;99.90;;;;;;1050670;28;20016;-73
2022/08/29 01:24:41;;;;;;;1.63;1.35;;;20.20;99.90;;;;;;1047845;28;20077;-73
2022/08/29 01:25:16;;;;;;;2.72;1.40;;;20.20;99.90;;;;;;1047453;28;20775;-73
2022/08/29 01:25:50;;;;;;;1.90;1.45;;;20.10;99.90;;;;;;1051577;28;20475;-73
2022/08/29 01:26:21;;;;;;;2.65;1.45;;;20.20;99.90;;;;;;1051699;28;20027;-73
2022/08/29 01:26:52;;;;;;;2.20;1.30;;;20.20;99.90;;;;;;1052781;28;20217;-74
2022/08/29 01:27:28;;;;;;;1.87;1.27;;;20.20;99.90;;;;;;1054495;28;20016;-73
2022/08/29 01:28:08;;;;;;;2.30;1.13;;;20.20;99.90;;;;;;1052035;28;20086;-74
2022/08/29 01:28:42;;;;;;;1.33;1.23;;;20.20;99.90;;;;;;1051677;28;20604;-73
2022/08/29 01:29:14;;;;;;;2.03;1.27;;;20.10;99.90;;;;;;1054320;28;20012;-72
2022/08/29 01:29:45;;;;;;;1.85;1.30;;;20.10;99.90;;;;;;1051600;28;20084;-73
2022/08/29 01:30:16;;;;;;;2.20;1.40;;;20.10;99.90;;;;;;1051515;28;20097;-72
2022/08/29 01:31:19;;;;;;;1.57;1.40;;;20.10;99.90;;;;;;1048046;28;20017;-72
2022/08/29 01:31:50;;;;;;;2.10;1.40;;;20.10;99.90;;;;;;1031563;28;20023;-72
2022/08/29 01:32:24;;;;;;;2.67;1.33;;;20.10;99.90;;;;;;1050166;28;20438;-72
2022/08/29 01:32:56;;;;;;;1.80;1.30;;;20.10;99.90;;;;;;1055869;28;20054;-72
2022/08/29 01:33:39;;;;;;;1.63;1.30;;;20.10;99.90;;;;;;1056576;27;20425;-72
2022/08/29 01:34:10;;;;;;;3.03;1.58;;;20.10;99.90;;;;;;1055403;27;20049;-72
2022/08/29 01:34:41;;;;;;;2.97;1.30;;;20.10;99.90;;;;;;1052056;28;20024;-72
2022/08/29 01:35:12;;;;;;;1.63;1.20;;;20.10;99.90;;;;;;1052256;28;20128;-72
2022/08/29 01:35:42;;;;;;;3.63;1.37;;;20.10;99.90;;;;;;1051580;28;20268;-72
2022/08/29 01:36:17;;;;;;;1.63;1.30;;;20.10;99.90;;;;;;1051722;28;20008;-73
2022/08/29 01:36:54;;;;;;;3.40;1.30;;;20.10;99.90;;;;;;1051532;28;20020;-74
2022/08/29 01:37:28;;;;;;;2.33;1.50;;;20.10;99.90;;;;;;1051432;28;20128;-73
2022/08/29 01:37:58;;;;;;;2.00;1.45;;;20.10;99.90;;;;;;1047293;28;20016;-73
2022/08/29 01:38:29;;;;;;;1.90;1.40;;;20.10;99.90;;;;;;1047459;28;20028;-73
2022/08/29 01:39:00;;;;;;;1.47;1.37;;;20.10;99.90;;;;;;1043614;28;20161;-73
2022/08/29 01:39:34;;;;;;;2.63;1.50;;;20.10;99.90;;;;;;1043423;28;20488;-73
2022/08/29 01:40:05;;;;;;;2.70;1.55;;;20.10;99.90;;;;;;1043284;28;20112;-73
2022/08/29 01:40:36;;;;;;;1.60;1.33;;;20.10;99.90;;;;;;1043909;28;20023;-73
2022/08/29 01:41:07;;;;;;;2.53;1.50;;;20.10;99.90;;;;;;1047209;28;20036;-74
2022/08/29 01:41:38;;;;;;;2.25;1.48;;;20.10;99.90;;;;;;1051639;28;20020;-73
2022/08/29 01:42:12;;;;;;;2.35;1.52;;;20.10;99.90;;;;;;1051496;28;20095;-72
2022/08/29 01:42:43;;;;;;;2.45;1.63;;;20.10;99.90;;;;;;1056197;27;20027;-72
2022/08/29 01:43:13;;;;;;;4.50;1.63;;;20.00;99.90;;;;;;1055366;28;20016;-72
2022/08/29 01:43:47;;;;;;;3.47;1.90;;;20.00;99.90;;;;;;1051410;28;20028;-73
2022/08/29 01:44:20;;;;;;;3.63;1.50;;;20.00;99.90;;;;;;1047381;28;20102;-72
2022/08/29 01:44:54;;;;;;;4.03;1.75;;;20.00;99.90;;;;;;1047500;28;20171;-71
2022/08/29 01:45:25;;;;;;;2.58;1.67;;;20.00;99.90;;;;;;1048719;28;20086;-71
2022/08/29 01:45:57;;;;;;;2.43;1.37;;;20.00;99.90;;;;;;1051939;28;20119;-70
2022/08/29 01:46:32;;;;;;;2.63;1.67;;;20.00;99.90;;;;;;1051777;28;20814;-72
2022/08/29 01:47:04;;;;;;;3.92;1.52;;;20.00;99.90;;;;;;1051762;28;20024;-73
2022/08/29 01:47:34;;;;;;;1.85;1.35;;;20.00;99.90;;;;;;1051453;28;20791;-73
2022/08/29 01:48:05;;;;;;;3.87;1.50;;;20.00;99.90;;;;;;1051632;28;20721;-72
2022/08/29 01:48:37;;;;;;;2.90;1.50;;;20.00;99.90;;;;;;1051740;28;20095;-72
2022/08/29 01:49:10;;;;;;;2.05;1.60;;;20.00;99.90;;;;;;1051754;28;20054;-72
2022/08/29 01:49:40;;;;;;;2.22;1.70;;;20.00;99.90;;;;;;1051760;28;20030;-72
2022/08/29 01:50:14;;;;;;;3.47;1.37;;;20.00;99.90;;;;;;1051622;28;20047;-71
2022/08/29 01:50:45;;;;;;;3.95;1.23;;;20.00;99.90;;;;;;1051390;28;20035;-72
2022/08/29 01:51:16;;;;;;;2.20;1.60;;;20.00;99.90;;;;;;1051592;28;20547;-72
2022/08/29 01:51:47;;;;;;;3.35;1.77;;;20.00;99.90;;;;;;1047307;28;20480;-72
2022/08/29 01:52:18;;;;;;;2.33;1.67;;;20.00;99.90;;;;;;1047675;28;20625;-73
2022/08/29 01:52:48;;;;;;;3.43;1.70;;;20.00;99.90;;;;;;1051551;28;20031;-72
2022/08/29 01:53:19;;;;;;;2.70;1.63;;;20.00;99.90;;;;;;1051547;28;20571;-72
2022/08/29 01:53:51;;;;;;;2.00;1.40;;;20.00;99.90;;;;;;1051798;28;20368;-72
2022/08/29 01:54:22;;;;;;;2.17;1.58;;;20.00;99.90;;;;;;1051819;28;20065;-73
2022/08/29 01:54:52;;;;;;;2.53;1.70;;;20.00;99.90;;;;;;1052028;28;20153;-72
2022/08/29 01:55:23;;;;;;;1.50;1.30;;;20.00;99.90;;;;;;1051401;28;20419;-73
2022/08/29 01:55:54;;;;;;;3.30;1.60;;;20.00;99.90;;;;;;1051479;28;20028;-73
2022/08/29 01:56:28;;;;;;;1.63;1.30;;;20.00;99.90;;;;;;1051647;28;20054;-72
2022/08/29 01:57:00;;;;;;;2.35;1.30;;;20.00;99.90;;;;;;1047252;28;20456;-72
2022/08/29 01:57:31;;;;;;;2.50;1.70;;;20.00;99.90;;;;;;1047287;28;20550;-71
2022/08/29 01:58:01;;;;;;;2.37;1.40;;;20.00;99.90;;;;;;1051085;28;20103;-71
2022/08/29 01:58:32;;;;;;;2.37;1.57;;;20.00;99.90;;;;;;1047054;28;20541;-72
2022/08/29 01:59:06;;;;;;;1.80;1.33;;;20.00;99.90;;;;;;1043363;28;20044;-72
2022/08/29 01:59:37;;;;;;;2.60;1.60;;;20.00;99.90;;;;;;1047465;28;20024;-73
2022/08/29 02:00:10;;;;;;;2.20;1.42;;;20.00;99.90;;;;;;1043860;28;20519;-72
2022/08/29 02:00:40;;;;;;;4.65;1.88;;;19.90;99.90;;;;;;1047287;28;20867;-72
2022/08/29 02:01:14;;;;;;;2.13;1.70;;;20.00;99.90;;;;;;1047322;28;20544;-71
2022/08/29 02:01:55;;;;;;;2.53;1.90;;;20.00;99.90;;;;;;1043927;28;20338;-72
2022/08/29 02:02:28;;;;;;;2.33;1.30;;;20.00;99.90;;;;;;1043208;28;20108;-73
2022/08/29 02:03:02;;;;;;;2.83;1.67;;;19.90;99.90;;;;;;1045437;28;20067;-71
2022/08/29 02:03:32;;;;;;;1.88;1.40;;;19.90;99.90;;;;;;1047314;28;20027;-72
2022/08/29 02:04:04;;;;;;;1.67;1.30;;;19.90;99.90;;;;;;1044301;28;20028;-72
2022/08/29 02:04:35;;;;;;;3.22;1.63;;;19.90;99.90;;;;;;1048088;28;20033;-72
2022/08/29 02:05:06;;;;;;;2.93;1.40;;;19.90;99.90;;;;;;1047253;28;20136;-72
2022/08/29 02:05:36;;;;;;;2.23;1.63;;;19.90;99.90;;;;;;1047748;28;20078;-72
2022/08/29 02:06:10;;;;;;;2.07;1.37;;;19.90;99.90;;;;;;1043361;28;20027;-74
2022/08/29 02:06:41;;;;;;;2.35;1.67;;;19.90;99.90;;;;;;1047663;28;20060;-73
2022/08/29 02:07:16;;;;;;;2.97;1.83;;;19.90;99.90;;;;;;1043186;28;20017;-72
2022/08/29 02:07:46;;;;;;;1.63;1.35;;;19.90;99.90;;;;;;1040353;28;20529;-73
2022/08/29 02:08:18;;;;;;;2.27;1.60;;;19.90;99.90;;;;;;1047534;28;20373;-72
2022/08/29 02:08:49;;;;;;;3.33;1.85;;;19.90;99.90;;;;;;1048001;28;20013;-72
2022/08/29 02:09:21;;;;;;;2.50;1.50;;;19.90;99.90;;;;;;1047397;28;20116;-72
2022/08/29 02:09:52;;;;;;;2.05;1.50;;;19.90;99.90;;;;;;1049912;28;20051;-73
2022/08/29 02:10:23;;;;;;;3.42;1.58;;;19.90;99.90;;;;;;1047150;28;20020;-72
2022/08/29 02:10:54;;;;;;;2.53;1.70;;;19.80;99.90;;;;;;1047828;28;20103;-72
2022/08/29 02:11:25;;;;;;;2.58;1.60;;;19.80;99.90;;;;;;1051369;28;20024;-71
2022/08/29 02:11:57;;;;;;;2.17;1.50;;;19.80;99.90;;;;;;1052029;28;20020;-72
2022/08/29 02:12:30;;;;;;;2.95;1.55;;;19.80;99.90;;;;;;1051778;28;20027;-72
2022/08/29 02:13:01;;;;;;;3.05;1.88;;;19.80;99.90;;;;;;1051807;28;20551;-72
2022/08/29 02:13:32;;;;;;;3.40;1.43;;;19.80;99.90;;;;;;1051888;28;20558;-71
2022/08/29 02:14:04;;;;;;;1.90;1.50;;;19.80;99.90;;;;;;1051837;28;20016;-71
2022/08/29 02:14:35;;;;;;;2.35;1.60;;;19.80;99.90;;;;;;1051598;28;20078;-72
2022/08/29 02:15:06;;;;;;;5.18;1.85;;;19.80;99.90;;;;;;1049817;28;20028;-71
2022/08/29 02:15:37;;;;;;;2.73;1.30;;;19.80;99.90;;;;;;1051421;28;20099;-73
2022/08/29 02:16:07;;;;;;;2.43;1.60;;;19.80;99.90;;;;;;1051614;28;20403;-72
2022/08/29 02:16:38;;;;;;;3.37;1.73;;;19.80;99.90;;;;;;1051482;28;20099;-73
2022/08/29 02:17:09;;;;;;;4.47;1.67;;;19.80;99.90;;;;;;1052142;28;20008;-71
2022/08/29 02:17:40;;;;;;;2.73;1.70;;;19.80;99.90;;;;;;1051681;28;20042;-73
2022/08/29 02:18:10;;;;;;;2.03;1.30;;;19.80;99.90;;;;;;1051729;28;20016;-72
2022/08/29 02:18:41;;;;;;;1.67;1.27;;;19.80;99.90;;;;;;1052045;28;20012;-71
2022/08/29 02:19:12;;;;;;;4.20;1.80;;;19.80;99.90;;;;;;1051647;28;20019;-72
2022/08/29 02:19:43;;;;;;;2.33;1.40;;;19.80;99.90;;;;;;1050964;28;20012;-72
2022/08/29 02:20:14;;;;;;;3.17;1.50;;;19.80;99.90;;;;;;1051284;28;20502;-72
2022/08/29 02:20:45;;;;;;;2.22;1.75;;;19.80;99.90;;;;;;1051519;28;20022;-72
2022/08/29 02:21:18;;;;;;;2.17;1.70;;;19.80;99.90;;;;;;1051534;28;20015;-72
2022/08/29 02:21:49;;;;;;;2.88;1.30;;;19.80;99.90;;;;;;1051223;28;20382;-72
2022/08/29 02:22:19;;;;;;;2.53;1.60;;;19.80;99.90;;;;;;1047706;28;20442;-73
2022/08/29 02:22:50;;;;;;;3.13;1.60;;;19.80;99.90;;;;;;1047095;28;20019;-72
2022/08/29 02:23:20;;;;;;;2.27;1.70;;;19.80;99.90;;;;;;1047346;28;20009;-73
2022/08/29 02:23:52;;;;;;;4.37;1.50;;;19.80;99.90;;;;;;1047320;28;20573;-73
2022/08/29 02:24:22;;;;;;;2.38;1.70;;;19.80;99.90;;;;;;1043128;28;20055;-72
2022/08/29 02:24:54;;;;;;;2.37;1.60;;;19.80;99.90;;;;;;1047489;28;20072;-72
2022/08/29 02:25:43;;;;;;;2.50;1.85;;;19.80;99.90;;;;;;1048267;28;20008;-72
2022/08/29 02:26:13;;;;;;;2.80;1.58;;;19.80;99.90;;;;;;1051565;28;20083;-72
2022/08/29 02:26:44;;;;;;;3.17;1.83;;;19.80;99.90;;;;;;1051400;28;20016;-73
2022/08/29 02:27:14;;;;;;;2.07;1.50;;;19.80;99.90;;;;;;1051012;28;20487;-72
2022/08/29 02:27:45;;;;;;;2.73;1.70;;;19.80;99.90;;;;;;1051705;28;20016;-72
2022/08/29 02:28:18;;;;;;;2.13;1.40;;;19.80;99.90;;;;;;1051200;28;20340;-72
2022/08/29 02:28:50;;;;;;;1.38;1.23;;;19.80;99.90;;;;;;1051814;28;20016;-73
2022/08/29 02:29:22;;;;;;;2.63;1.77;;;19.80;99.90;;;;;;1051435;28;20020;-73
2022/08/29 02:29:52;;;;;;;1.92;1.58;;;19.80;99.90;;;;;;1050922;28;20345;-72
2022/08/29 02:30:24;;;;;;;2.33;1.57;;;19.80;99.90;;;;;;1050783;28;20441;-73
2022/08/29 02:30:55;;;;;;;1.98;1.70;;;19.80;99.90;;;;;;1051509;28;20539;-74
2022/08/29 02:31:25;;;;;;;2.53;1.60;;;19.80;99.90;;;;;;1051274;28;20399;-72
2022/08/29 02:31:56;;;;;;;2.97;1.40;;;19.80;99.90;;;;;;1047269;28;20119;-73
2022/08/29 02:32:26;;;;;;;3.27;1.70;;;19.80;99.90;;;;;;1042897;28;20016;-73
2022/08/29 02:32:57;;;;;;;2.47;1.37;;;19.80;99.90;;;;;;1047347;28;20103;-72
2022/08/29 02:33:28;;;;;;;2.50;1.37;;;19.80;99.90;;;;;;1051415;28;20087;-72
2022/08/29 02:33:58;;;;;;;1.93;1.40;;;19.80;99.90;;;;;;1051502;28;20008;-72
2022/08/29 02:34:29;;;;;;;5.27;2.37;;;19.80;99.90;;;;;;1055437;28;20080;-72
2022/08/29 02:35:00;;;;;;;2.25;1.50;;;19.80;99.90;;;;;;1047231;28;20457;-72
2022/08/29 02:35:31;;;;;;;4.03;1.83;;;19.80;99.90;;;;;;1047512;28;20091;-71
2022/08/29 02:36:03;;;;;;;2.80;1.40;;;19.70;99.90;;;;;;1051333;28;20450;-71
2022/08/29 02:36:35;;;;;;;2.25;1.40;;;19.70;99.90;;;;;;1051356;28;20143;-72
2022/08/29 02:37:06;;;;;;;2.35;1.48;;;19.70;99.90;;;;;;1051894;28;20020;-71
2022/08/29 02:37:36;;;;;;;2.25;1.65;;;19.70;99.90;;;;;;1051568;28;20012;-72
2022/08/29 02:38:07;;;;;;;2.93;1.57;;;19.70;99.90;;;;;;1051410;28;20024;-72
2022/08/29 02:38:38;;;;;;;3.00;1.90;;;19.70;99.90;;;;;;1051694;28;20026;-72
2022/08/29 02:39:09;;;;;;;2.90;1.65;;;19.70;99.90;;;;;;1050888;28;20020;-71
2022/08/29 02:39:40;;;;;;;1.63;1.30;;;19.70;99.90;;;;;;1051367;28;20016;-72
2022/08/29 02:40:10;;;;;;;2.67;1.43;;;19.70;99.90;;;;;;1046915;28;20021;-72
2022/08/29 02:40:42;;;;;;;1.90;1.20;;;19.70;99.90;;;;;;1047359;28;20035;-72
2022/08/29 02:41:13;;;;;;;2.10;1.38;;;19.70;99.90;;;;;;1051259;28;20028;-72
2022/08/29 02:41:44;;;;;;;3.03;1.60;;;19.70;99.90;;;;;;1047057;28;20038;-73
2022/08/29 02:42:15;;;;;;;2.70;1.47;;;19.70;99.90;;;;;;1046945;28;20380;-73
2022/08/29 02:42:45;;;;;;;3.07;1.83;;;19.70;99.90;;;;;;1046078;28;20566;-72
2022/08/29 02:43:18;;;;;;;2.60;1.40;;;19.70;99.90;;;;;;1047153;28;20020;-72
2022/08/29 02:43:48;;;;;;;3.05;1.70;;;19.70;99.90;;;;;;1051220;28;20098;-72
2022/08/29 02:44:19;;;;;;;2.23;1.50;;;19.70;99.90;;;;;;1051642;28;20020;-72
2022/08/29 02:44:49;;;;;;;3.80;1.57;;;19.70;99.90;;;;;;1049034;28;20096;-72
2022/08/29 02:45:21;;;;;;;2.27;1.50;;;19.70;99.90;;;;;;1047152;28;20119;-72
2022/08/29 02:45:52;;;;;;;2.95;1.48;;;19.70;99.90;;;;;;1047234;28;20021;-72
2022/08/29 02:46:24;;;;;;;2.50;1.70;;;19.70;99.90;;;;;;1048403;28;20025;-71
2022/08/29 02:46:55;;;;;;;2.42;1.60;;;19.70;99.90;;;;;;1049029;28;20016;-72
2022/08/29 02:47:26;;;;;;;1.83;1.40;;;19.70;99.90;;;;;;1047461;28;20037;-72
2022/08/29 02:47:57;;;;;;;2.60;1.63;;;19.70;99.90;;;;;;1047584;28;20129;-71
2022/08/29 02:48:28;;;;;;;3.17;1.83;;;19.70;99.90;;;;;;1048395;28;20379;-72
2022/08/29 02:48:59;;;;;;;1.70;1.20;;;19.70;99.90;;;;;;1051095;28;20486;-72
2022/08/29 02:49:29;;;;;;;2.30;1.30;;;19.70;99.90;;;;;;1046757;28;20032;-72
2022/08/29 02:50:00;;;;;;;3.50;1.70;;;19.70;99.90;;;;;;1047352;28;20025;-71